Погода Вестмонтна неделю

Калифорния, США

01 - 07 сентября
  • 01сентября
    Сегодня
    +18°
    +25°
    Ясно и безоблачно
    ВремяПогодаТемператураВлажностьДавлениеВетер, м/сВероятность осадков
    02:00Ясно и безоблачно+18°C76 %755 мм1.2 м/с2 %
    05:00Ясно и безоблачно+17°C79 %755 мм1.0 м/с2 %
    08:00Ясно и безоблачно+18°C73 %755 мм0.5 м/с2 %
    11:00Ясно и безоблачно+23°C57 %756 мм2.4 м/с2 %
    14:00Ясно и безоблачно+25°C52 %756 мм4.7 м/с2 %
    17:00Ясно и безоблачно+24°C55 %754 мм5.3 м/с2 %
    20:00Ясно и безоблачно+21°C64 %754 мм3.5 м/с2 %
    23:00Ясно и безоблачно+20°C72 %756 мм1.9 м/с2 %
  • 02сентября
    Среда
    +19°
    +26°
    Ясно и безоблачно
    ВремяПогодаТемператураВлажностьДавлениеВетер, м/сВероятность осадков
    02:00Ясно и безоблачно+20°C73 %756 мм0.5 м/с2 %
    05:00Ясно и безоблачно+19°C75 %755 мм0.5 м/с2 %
    08:00Ясно и безоблачно+20°C72 %756 мм0.6 м/с2 %
    11:00Ясно и безоблачно+24°C53 %756 мм2.0 м/с2 %
    14:00Ясно и безоблачно+26°C47 %755 мм4.4 м/с2 %
    17:00Ясно и безоблачно+25°C53 %754 мм5.3 м/с2 %
    20:00Ясно и безоблачно+22°C59 %754 мм3.3 м/с2 %
    23:00Ясно и безоблачно+21°C73 %755 мм1.6 м/с2 %
  • 03сентября
    Четверг
    +19°
    +27°
    Ясно и безоблачно
    ВремяПогодаТемператураВлажностьДавлениеВетер, м/сВероятность осадков
    02:00Ясно и безоблачно+20°C77 %755 мм0.6 м/с2 %
    05:00Ясно и безоблачно+20°C79 %754 мм1.0 м/с2 %
    08:00Ясно и безоблачно+21°C73 %755 мм1.1 м/с2 %
    11:00Ясно и безоблачно+24°C54 %754 мм2.2 м/с2 %
    14:00Ясно и безоблачно+26°C53 %753 мм4.6 м/с2 %
    17:00Ясно и безоблачно+25°C59 %752 мм5.4 м/с2 %
    20:00Ясно и безоблачно+22°C65 %752 мм3.9 м/с2 %
    23:00Ясно и безоблачно+21°C76 %753 мм2.0 м/с2 %
  • 04сентября
    Пятница
    +19°
    +27°
    Ясно и безоблачно
    ВремяПогодаТемператураВлажностьДавлениеВетер, м/сВероятность осадков
    02:00Ясно и безоблачно+20°C78 %753 мм0.3 м/с2 %
    05:00Ясно и безоблачно+20°C80 %753 мм0.5 м/с2 %
    08:00Ясно и безоблачно+21°C75 %754 мм0.5 м/с2 %
    11:00Ясно и безоблачно+25°C54 %754 мм1.6 м/с2 %
    14:00Ясно и безоблачно+27°C49 %753 мм4.7 м/с2 %
    17:00Ясно и безоблачно+25°C59 %753 мм4.8 м/с2 %
    20:00Ясно и безоблачно+22°C71 %753 мм3.0 м/с2 %
    23:00Ясно и безоблачно+21°C76 %754 мм1.3 м/с2 %
  • 05сентября
    Суббота
    +21°
    +28°
    Ясно и безоблачно
    ВремяПогодаТемператураВлажностьДавлениеВетер, м/сВероятность осадков
    02:00Ясно и безоблачно+21°C76 %754 мм0.2 м/с2 %
    05:00Ясно и безоблачно+20°C78 %753 мм0.0 м/с5 %
    08:00Ясно и безоблачно+21°C71 %755 мм0.0 м/с11 %
    11:00Ясно и безоблачно+27°C43 %754 мм1.5 м/с14 %
    14:00Ясно и безоблачно+28°C44 %753 мм4.2 м/с19 %
    17:00Ясно и безоблачно+26°C51 %753 мм4.6 м/с14 %
    20:00Ясно и безоблачно+23°C65 %753 мм2.8 м/с17 %
    23:00Ясно и безоблачно+23°C68 %754 мм1.3 м/с21 %
  • 06сентября
    Воскресенье
    +18°
    +28°
    Ясно и безоблачно
    ВремяПогодаТемператураВлажностьДавлениеВетер, м/сВероятность осадков
    05:00Ясно и безоблачно+22°C71 %753 мм0.2 м/с31 %
    11:00Ясно и безоблачно+27°C59 %754 мм1.5 м/с37 %
    17:00Ясно и безоблачно+27°C65 %753 мм3.2 м/с32 %
    23:00Ясно и безоблачно+22°C70 %753 мм1.9 м/с24 %
  • 07сентября
    Понедельник
    +17°
    +30°
    Ясно и безоблачно
    ВремяПогодаТемператураВлажностьДавлениеВетер, м/сВероятность осадков
    05:00Ясно и безоблачно+19°C83 %753 мм1.6 м/с19 %
    11:00Ясно и безоблачно+27°C52 %754 мм2.2 м/с27 %
    17:00Ясно и безоблачно+27°C47 %752 мм4.0 м/с21 %
    23:00Ясно и безоблачно+20°C77 %753 мм1.8 м/с14 %
Мы используем cookies
Соглашаюсь